Latest Coastal Weather Observations for Swan Island

IDT60701

Issued at 6:02 am EST Wednesday 8 July 2015 (issued every 10 minutes, with the page automatically refreshed every 10 minutes)

About coastal observations | Map of coastal stations | Coastal observations for TAS | Marine services | Other Formats
Station Details ID: 092123 Name: SWAN ISLAND Lat: -40.73 Lon: 148.12 Height: 15.0 m
Data from the previous 72 hours. | See also: Recent months at Swan Island
Date/Time
EST
Temp

°C
Wind Pressure Rain
since 9am
mm
Weather Cloud Vis
km
Sea
Height
m
Swell
Dir
 
Speed
knots
Gust
knots
hPa Trend Height
m
Period
s
Dir
08/06:00am 6.5 S 6 8 1028.2 - 0.0 - - - - - - -
08/05:30am 6.8 S 7 9 1027.9 - 0.0 - - - - - - -
08/05:00am 6.7 S 8 10 1027.8 - 0.0 - - - - - - -
08/04:30am 6.7 S 7 9 1027.7 - 0.0 - - - - - - -
08/04:00am 6.6 S 8 10 1027.7 - 0.0 - - - - - - -
08/03:30am 6.9 S 7 10 1027.6 - 0.0 - - - - - - -
08/03:00am 7.1 S 7 9 1027.6 - 0.0 - - - - - - -
08/02:30am 6.9 SSE 9 11 1027.9 - 0.0 - - - - - - -
08/02:00am 6.8 S 8 10 1027.9 - 0.0 - - - - - - -
08/01:30am 6.7 SSE 10 13 1027.7 - 0.0 - - - - - - -
08/01:00am 7.2 SSE 6 8 1027.7 - 0.0 - - - - - - -
08/12:30am 7.7 S 7 9 1027.6 - 0.0 - - - - - - -
08/12:00am 8.1 SSE 11 14 1027.6 - 0.0 - - - - - - -
 
Date/Time
EST
Temp

°C
Wind Pressure Rain
since 9am
mm
Weather Cloud Vis
km
Sea
Height
m
Swell
Dir
 
Speed
knots
Gust
knots
hPa Trend Height
m
Period
s
Dir
07/11:30pm 7.5 SSE 10 13 1027.5 - 0.0 - - - - - - -
07/11:00pm 7.1 SSE 9 13 1027.5 - 0.0 - - - - - - -
07/10:30pm 6.9 SSE 10 13 1027.4 - 0.0 - - - - - - -
07/10:00pm 6.5 S 9 13 1027.4 - 0.0 - - - - - - -
07/09:30pm 6.8 S 9 12 1027.4 - 0.0 - - - - - - -
07/09:00pm 7.0 S 9 12 1027.2 - 0.0 - - - - - - -
07/08:30pm 7.1 S 11 14 1027.0 - 0.0 - - - - - - -
07/08:00pm 7.7 SSE 11 15 1026.9 - 0.0 - - - - - - -
07/07:30pm 8.1 SSE 12 15 1026.7 - 0.0 - - - - - - -
07/07:00pm 8.2 SSE 12 16 1026.5 - 0.0 - - - - - - -
07/06:30pm 8.3 SSE 13 17 1026.3 - 0.0 - - - - - - -
07/06:00pm 8.5 SSE 12 15 1026.0 - 0.0 - - - - - - -
07/05:30pm 8.7 SSE 14 18 1025.6 - 0.0 - - - - - - -
07/05:00pm 9.0 SSE 15 20 1025.3 - 0.0 - - - - - - -
07/04:30pm 9.2 SSE 13 16 1025.1 - 0.0 - - - - - - -
07/04:00pm 9.6 SSE 13 16 1024.8 - 0.0 - - - - - - -
07/03:30pm 9.9 SSE 12 15 1024.7 - 0.0 - - - - - - -
07/03:00pm 10.6 SSE 10 13 1024.5 - 0.0 - - - - - - -
07/02:30pm 10.2 SSE 9 15 1024.2 - 0.0 - - - - - - -
07/02:00pm 10.1 SE 12 14 1024.0 - 0.0 - - - - - - -
07/01:30pm 10.2 SSE 11 15 1024.0 - 0.0 - - - - - - -
07/01:00pm 10.1 SSE 11 16 1023.9 - 0.0 - - - - - - -
07/12:30pm 9.9 SSE 12 15 1024.1 - 0.0 - - - - - - -
07/12:00pm 9.7 SSE 13 16 1024.1 - 0.0 - - - - - - -
07/11:30am 9.2 S 13 19 1024.1 - 0.0 - - - - - - -
07/11:00am 9.1 SSE 13 17 1024.4 - 0.0 - - - - - - -
07/10:30am 8.6 S 13 19 1024.3 - 0.0 - - - - - - -
07/10:00am 8.1 SSE 13 19 1023.9 - 0.0 - - - - - - -
07/09:30am 7.3 S 11 15 1023.7 - 0.0 - - - - - - -
07/09:00am 6.6 S 9 14 1023.6 - 1.2 - - - - - - -
07/08:30am 5.9 S 7 11 1023.5 - 1.2 - - - - - - -
07/08:00am 5.4 S 7 11 1023.2 - 1.2 - - - - - - -
07/07:30am 5.6 S 9 13 1023.0 - 1.2 - - - - - - -
07/07:00am 5.8 SSE 9 12 1022.5 - 1.2 - - - - - - -
07/06:30am 6.2 S 10 15 1022.1 - 1.2 - - - - - - -
07/06:00am 6.3 S 8 11 1021.6 - 1.2 - - - - - - -
07/05:30am 6.4 S 8 13 1021.4 - 1.2 - - - - - - -
07/05:00am 6.6 S 11 17 1021.1 - 1.2 - - - - - - -
07/04:30am 7.0 S 18 25 1020.3 - 1.2 - - - - - - -
07/04:00am 7.0 S 15 22 1020.2 - 1.2 - - - - - - -
07/03:30am 6.6 S 15 21 1020.2 - 1.2 - - - - - - -
07/03:00am 6.9 S 16 21 1020.3 - 1.2 - - - - - - -
07/02:30am 7.1 S 15 19 1020.3 - 1.2 - - - - - - -
07/02:00am 6.5 S 12 17 1020.0 - 1.2 - - - - - - -
07/01:30am 5.8 S 11 14 1019.9 - 1.2 - - - - - - -
07/01:00am 5.9 S 11 16 1019.8 - 1.2 - - - - - - -
07/12:30am 5.6 S 12 16 1019.7 - 1.2 - - - - - - -
07/12:00am 5.8 S 11 15 1019.5 - 1.2 - - - - - - -
 
Date/Time
EST
Temp

°C
Wind Pressure Rain
since 9am
mm
Weather Cloud Vis
km
Sea
Height
m
Swell
Dir
 
Speed
knots
Gust
knots
hPa Trend Height
m
Period
s
Dir
06/11:30pm 5.9 S 13 17 1019.7 - 1.2 - - - - - - -
06/11:00pm 6.3 S 13 17 1019.6 - 1.2 - - - - - - -
06/10:30pm 6.5 S 15 21 1019.4 - 1.2 - - - - - - -
06/10:00pm 6.5 S 16 21 1019.2 - 1.2 - - - - - - -
06/09:30pm 7.0 SSE 16 23 1019.0 - 1.2 - - - - - - -
06/09:00pm 6.9 S 15 21 1018.8 - 1.2 - - - - - - -
06/08:30pm 6.9 SSE 17 22 1018.4 - 1.2 - - - - - - -
06/08:00pm 7.2 SSE 17 22 1018.1 - 1.2 - - - - - - -
06/07:30pm 7.3 S 16 21 1017.8 - 1.2 - - - - - - -
06/07:00pm 7.6 SSE 17 22 1017.4 - 1.2 - - - - - - -
06/06:30pm 7.5 SSE 17 22 1017.1 - 1.2 - - - - - - -
06/06:00pm 7.7 SSE 18 23 1016.7 - 1.2 - - - - - - -
06/05:30pm 7.9 SSE 16 21 1016.4 - 1.2 - - - - - - -
06/05:00pm 8.3 SSE 16 23 1016.1 - 1.2 - - - - - - -
06/04:30pm 8.4 SSE 19 25 1015.7 - 1.2 - - - - - - -
06/04:00pm 8.8 SSE 18 25 1015.4 - 1.2 - - - - - - -
06/03:30pm 8.8 SSE 19 25 1015.1 - 1.2 - - - - - - -
06/03:00pm 8.9 SSE 20 27 1014.7 - 1.2 - - - - - - -
06/02:30pm 9.0 SSE 20 26 1014.3 - 1.2 - - - - - - -
06/02:00pm 8.9 SSE 20 27 1014.2 - 1.2 - - - - - - -
06/01:30pm 8.7 SSE 21 27 1014.2 - 1.2 - - - - - - -
06/01:00pm 8.8 SSE 20 26 1014.1 - 1.2 - - - - - - -
06/12:30pm 8.8 SSE 21 27 1014.3 - 1.2 - - - - - - -
06/12:00pm 8.7 SSE 17 23 1014.4 - 1.2 - - - - - - -
06/11:30am 8.5 SSE 19 24 1014.6 - 1.2 - - - - - - -
06/11:00am 8.4 SSE 20 28 1014.8 - 1.2 - - - - - - -
06/10:30am 8.3 SSE 18 24 1014.8 - 1.2 - - - - - - -
06/10:00am 8.2 SSE 18 23 1014.7 - 0.8 - - - - - - -
06/09:30am 8.2 SSE 17 23 1014.6 - 0.2 - - - - - - -
06/09:00am 8.3 SSE 17 21 1014.3 - 56.2 Recent precip. - - - - - -
06/08:30am 8.3 SSE 16 20 1014.0 - 56.0 - - - - - - -
06/08:00am 8.4 SSE 15 20 1013.8 - 56.0 - - - - - - -
06/07:30am 8.4 SSE 13 19 1013.8 - 55.8 - - - - - - -
06/07:00am 8.6 SSE 13 17 1013.5 - 55.6 - - - - - - -
06/06:30am 8.8 SSE 12 18 1013.4 - 55.4 - - - - - - -
06/06:00am 9.2 SSE 10 14 1013.1 - 55.4 Recent precip. - - - - - -
06/05:30am 9.6 SE 11 13 1013.0 - 55.0 - - - - - - -
06/05:00am 9.2 SE 11 13 1012.7 - 54.8 - - - - - - -
06/04:30am 8.9 SE 9 12 1012.9 - 54.0 - - - - - - -
06/04:00am 8.3 SSE 10 14 1013.0 - 52.2 - - - - - - -
06/03:30am 8.2 SSE 11 15 1013.2 - 51.4 - - - - - - -
06/03:00am 8.4 SSE 9 12 1013.3 - 49.0 Rain - - - - - -
06/02:30am 8.4 SSE 11 14 1013.3 - 46.6 - - - - - - -
06/02:00am 8.5 SSE 9 13 1013.3 - 45.2 - - - - - - -
06/01:30am 8.5 SSE 9 13 1013.4 - 43.4 - - - - - - -
06/01:00am 8.7 SSE 10 13 1013.7 - 42.2 - - - - - - -
06/12:30am 8.8 SSE 11 14 1013.9 - 42.2 - - - - - - -
06/12:00am 8.9 SSE 12 16 1013.8 - 42.0 Recent precip. - - - - - -
 
Date/Time
EST
Temp

°C
Wind Pressure Rain
since 9am
mm
Weather Cloud Vis
km
Sea
Height
m
Swell
Dir
 
Speed
knots
Gust
knots
hPa Trend Height
m
Period
s
Dir
05/11:30pm 9.2 SSE 12 15 1013.9 - 41.8 - - - - - - -
05/11:00pm 9.2 SSE 11 14 1014.0 - 41.4 - - - - - - -
05/10:30pm 9.2 SSE 7 10 1014.3 - 41.2 - - - - - - -
05/10:00pm 9.3 SW 5 8 1014.5 - 41.0 - - - - - - -
05/09:30pm 9.5 SSE 9 11 1014.2 - 40.0 - - - - - - -
05/09:00pm 9.4 SSE 7 9 1014.1 - 39.2 Rain - - - - - -
05/08:30pm 9.4 SSE 9 12 1014.1 - 36.2 - - - - - - -
05/08:00pm 9.9 SSE 9 12 1013.8 - 31.4 - - - - - - -
05/07:30pm 10.5 SW 5 10 1013.7 - 25.6 - - - - - - -
05/07:00pm 11.6 W 10 17 1013.7 - 24.0 - - - - - - -
05/06:30pm 11.6 WSW 6 12 1013.4 - 22.8 - - - - - - -
05/06:00pm 11.7 W 9 13 1013.5 - 19.0 Rain - - - - - -
05/05:30pm 11.7 WNW 11 17 1013.2 - 16.0 - - - - - - -
05/05:00pm 11.7 WSW 9 15 1013.1 - 14.6 - - - - - - -
05/04:30pm 11.7 W 16 22 1012.9 - 11.6 - - - - - - -
05/04:00pm 12.0 W 15 19 1012.8 - 9.8 - - - - - - -
05/03:30pm 11.7 W 11 17 1012.8 - 9.4 - - - - - - -
05/03:00pm 11.9 WNW 13 20 1012.7 - 9.4 Recent precip. - - - - - -
05/02:39pm 11.8 WNW 15 26 1012.6 - 9.0 - - - - - - -
05/02:30pm 11.8 WNW 16 23 1012.7 - 8.8 - - - - - - -
05/02:00pm 12.0 WNW 17 26 1012.7 - 8.2 - - - - - - -
05/01:30pm 11.8 WNW 19 27 1012.6 - 7.8 - - - - - - -
05/01:00pm 11.8 WNW 19 25 1012.7 - 7.2 - - - - - - -
05/12:46pm 11.8 WNW 19 30 1012.7 - 7.0 - - - - - - -
05/12:30pm 12.0 WNW 21 28 1012.9 - 5.6 - - - - - - -
05/12:13pm 11.8 NW 22 32 1013.1 - 5.0 - - - - - - -
05/12:00pm 11.8 NW 21 27 1013.3 - 4.6 Recent precip. - - - - - -
05/11:39am 11.7 NW 18 32 1013.6 - 4.4 - - - - - - -
05/11:30am 12.0 NW 18 24 1013.8 - 3.8 - - - - - - -
05/11:00am 11.8 WNW 13 20 1014.5 - 2.8 - - - - - - -
05/10:30am 11.5 WNW 8 12 1014.9 - 2.0 - - - - - - -
05/10:00am 11.0 W 6 9 1015.1 - 1.6 - - - - - - -
05/09:30am 11.0 W 7 10 1015.1 - 0.4 - - - - - - -
05/09:00am 10.9 WNW 5 7 1014.7 - 1.8 Recent precip. - - - - - -
05/08:30am 10.7 W 4 7 1014.8 - 1.6 - - - - - - -
05/08:00am 10.7 W 4 13 1014.6 - 1.0 - - - - - - -
05/07:30am 9.9 WSW 3 4 1014.7 - 0.6 - - - - - - -
05/07:00am 10.2 W 3 3 1014.8 - 0.4 - - - - - - -
05/06:30am 10.4 WSW 4 6 1014.6 - 0.2 - - - - - - -

Other Formats:

Comma delimited format used in spreadsheet applications
http://www.bom.gov.au/fwo/IDT60701/IDT60701.95985.axf

JavaScript Object Notation format (JSON) in row-major order
http://www.bom.gov.au/fwo/IDT60701/IDT60701.95985.json